Pagrindinis puslapis
METAR-TAF:

METAR-TAF

Oro uostai :

Nuakšotas, Mauritanija

platuma: 18-18-36N, ilguma: 015-58-11W, Aukštis: 3 m

Dabartinis oras

Ataskaita buvo paskelbta 58 minutes, ne 03:00 UTC
Vėjas 9 kt iš Šiaurės
Temperatūra 26°C
Drėgmė 74%
Slėgis 1012 hPa
Matomumas: 7000 m
Mažai debesys ne aukštis 1300 ft

METAR: GQNO 300300Z 35009KT 7000 FEW013 26/21 Q1012 NOSIG

Laikas: 03:58 (03:58 UTC)

Prognozė

Ataskaita buvo paskelbta 4 valandos ir 58 minutes, ne 23:00 UTC
Prognozė galioja nuo 30 metu 00 UTC su 01 metu 06 UTC
Vėjas 10 kt iš Šiaurės/Šiaurės Vakarų
Matomumas: 7000 m
Tapsmas
nuo 30 metu 07 UTC su 30 metu 09 UTC
Vėjas 12 kt iš Šiaurės/Šiaurės Rytų
Tapsmas
nuo 30 metu 14 UTC su 30 metu 17 UTC
Vėjas 10 kt iš Šiaurės Vakarų

TAF: GQNO 292300Z 3000/0106 33010KT 7000 NSC BECMG 3007/3009 03012KT BECMG 3014/3017 32010KT

Orai ataskaitas ir orų prognozės (METAR, TAF).

turimą stotys yra geltonos ir raudonos taškus žemėlapyje.

Perkelti pele per norėdami pamatyti stoties vardą.

Tada spustelėkite, norėdami matyti oro stebėjimo ir prognozės.

Norėdami pakeisti žemėlapį: spustelėkite ant žalios mygtukų su juodo kryžiaus žemyn,; žalią mygtuką su brūkšneliu, jei norite nutolinti; arba žalių rodyklių gretimoms žemėlapius.


METAR-TAF: